sensor_id;sensor_type;location;lat;lon;timestamp;P1;P2;P0
70915;PMS5003;58557;50.982;-3.222;2023-12-29T00:01:46;15;11;
70915;PMS5003;58557;50.982;-3.222;2023-12-29T00:04:12;5;5;
70915;PMS5003;58557;50.982;-3.222;2023-12-29T00:06:38;11;8;
70915;PMS5003;58557;50.982;-3.222;2023-12-29T00:09:03;13;8;
70915;PMS5003;58557;50.982;-3.222;2023-12-29T00:11:28;10;5;
70915;PMS5003;58557;50.982;-3.222;2023-12-29T00:13:54;18;12;
70915;PMS5003;58557;50.982;-3.222;2023-12-29T00:16:19;13;9;
70915;PMS5003;58557;50.982;-3.222;2023-12-29T00:18:45;12;6;
70915;PMS5003;58557;50.982;-3.222;2023-12-29T00:21:11;14;8;
70915;PMS5003;58557;50.982;-3.222;2023-12-29T00:23:37;6;4;
70915;PMS5003;58557;50.982;-3.222;2023-12-29T00:26:02;10;6;
70915;PMS5003;58557;50.982;-3.222;2023-12-29T00:28:27;12;8;
70915;PMS5003;58557;50.982;-3.222;2023-12-29T00:30:52;13;9;
70915;PMS5003;58557;50.982;-3.222;2023-12-29T00:33:18;12;6;
70915;PMS5003;58557;50.982;-3.222;2023-12-29T00:35:44;8;5;
70915;PMS5003;58557;50.982;-3.222;2023-12-29T00:38:09;10;5;
70915;PMS5003;58557;50.982;-3.222;2023-12-29T00:40:35;13;4;
70915;PMS5003;58557;50.982;-3.222;2023-12-29T00:43:01;6;6;
70915;PMS5003;58557;50.982;-3.222;2023-12-29T00:45:26;6;4;
70915;PMS5003;58557;50.982;-3.222;2023-12-29T00:47:51;12;6;
70915;PMS5003;58557;50.982;-3.222;2023-12-29T00:50:17;9;8;
70915;PMS5003;58557;50.982;-3.222;2023-12-29T00:52:42;10;8;
70915;PMS5003;58557;50.982;-3.222;2023-12-29T00:55:07;10;8;
70915;PMS5003;58557;50.982;-3.222;2023-12-29T00:57:33;11;9;
70915;PMS5003;58557;50.982;-3.222;2023-12-29T00:59:59;6;4;
70915;PMS5003;58557;50.982;-3.222;2023-12-29T01:02:23;12;8;
70915;PMS5003;58557;50.982;-3.222;2023-12-29T01:04:49;7;4;
70915;PMS5003;58557;50.982;-3.222;2023-12-29T01:07:15;3;2;
70915;PMS5003;58557;50.982;-3.222;2023-12-29T01:09:40;12;5;
70915;PMS5003;58557;50.982;-3.222;2023-12-29T01:12:06;6;3;
70915;PMS5003;58557;50.982;-3.222;2023-12-29T01:14:32;4;4;
70915;PMS5003;58557;50.982;-3.222;2023-12-29T01:16:57;10;4;
70915;PMS5003;58557;50.982;-3.222;2023-12-29T01:19:23;10;6;
70915;PMS5003;58557;50.982;-3.222;2023-12-29T01:21:49;7;4;
70915;PMS5003;58557;50.982;-3.222;2023-12-29T01:24:14;6;5;
70915;PMS5003;58557;50.982;-3.222;2023-12-29T01:26:40;7;5;
70915;PMS5003;58557;50.982;-3.222;2023-12-29T01:29:05;13;9;
70915;PMS5003;58557;50.982;-3.222;2023-12-29T01:31:31;7;6;
70915;PMS5003;58557;50.982;-3.222;2023-12-29T01:33:56;12;5;
70915;PMS5003;58557;50.982;-3.222;2023-12-29T01:36:21;13;7;
70915;PMS5003;58557;50.982;-3.222;2023-12-29T01:38:47;10;5;
70915;PMS5003;58557;50.982;-3.222;2023-12-29T01:41:13;4;4;
70915;PMS5003;58557;50.982;-3.222;2023-12-29T01:46:03;9;4;
70915;PMS5003;58557;50.982;-3.222;2023-12-29T01:48:29;6;4;
70915;PMS5003;58557;50.982;-3.222;2023-12-29T01:50:54;4;4;
70915;PMS5003;58557;50.982;-3.222;2023-12-29T01:53:19;9;4;
70915;PMS5003;58557;50.982;-3.222;2023-12-29T01:55:45;4;3;
70915;PMS5003;58557;50.982;-3.222;2023-12-29T01:58:11;6;6;
70915;PMS5003;58557;50.982;-3.222;2023-12-29T02:00:36;8;7;
70915;PMS5003;58557;50.982;-3.222;2023-12-29T02:03:02;9;9;
70915;PMS5003;58557;50.982;-3.222;2023-12-29T02:05:27;9;5;
70915;PMS5003;58557;50.982;-3.222;2023-12-29T02:07:53;3;3;
70915;PMS5003;58557;50.982;-3.222;2023-12-29T02:10:18;2;1;
70915;PMS5003;58557;50.982;-3.222;2023-12-29T02:12:44;2;2;
70915;PMS5003;58557;50.982;-3.222;2023-12-29T02:15:10;4;2;
70915;PMS5003;58557;50.982;-3.222;2023-12-29T02:17:35;3;1;
70915;PMS5003;58557;50.982;-3.222;2023-12-29T02:20:01;3;3;
70915;PMS5003;58557;50.982;-3.222;2023-12-29T02:22:26;5;4;
70915;PMS5003;58557;50.982;-3.222;2023-12-29T02:24:52;4;1;
70915;PMS5003;58557;50.982;-3.222;2023-12-29T02:27:21;6;3;
70915;PMS5003;58557;50.982;-3.222;2023-12-29T02:29:44;9;4;
70915;PMS5003;58557;50.982;-3.222;2023-12-29T02:32:10;9;5;
70915;PMS5003;58557;50.982;-3.222;2023-12-29T02:34:35;9;2;
70915;PMS5003;58557;50.982;-3.222;2023-12-29T02:37:01;15;11;
70915;PMS5003;58557;50.982;-3.222;2023-12-29T02:39:26;10;7;
70915;PMS5003;58557;50.982;-3.222;2023-12-29T02:41:52;6;5;
70915;PMS5003;58557;50.982;-3.222;2023-12-29T02:44:18;11;7;
70915;PMS5003;58557;50.982;-3.222;2023-12-29T02:46:43;13;6;
70915;PMS5003;58557;50.982;-3.222;2023-12-29T02:49:09;4;4;
70915;PMS5003;58557;50.982;-3.222;2023-12-29T02:51:34;10;10;
70915;PMS5003;58557;50.982;-3.222;2023-12-29T02:54:00;11;6;
70915;PMS5003;58557;50.982;-3.222;2023-12-29T02:56:25;13;11;
70915;PMS5003;58557;50.982;-3.222;2023-12-29T02:58:51;10;4;
70915;PMS5003;58557;50.982;-3.222;2023-12-29T03:01:17;5;4;
70915;PMS5003;58557;50.982;-3.222;2023-12-29T03:03:43;16;12;
70915;PMS5003;58557;50.982;-3.222;2023-12-29T03:06:09;19;12;
70915;PMS5003;58557;50.982;-3.222;2023-12-29T03:08:34;6;5;
70915;PMS5003;58557;50.982;-3.222;2023-12-29T03:10:59;5;4;
70915;PMS5003;58557;50.982;-3.222;2023-12-29T03:13:25;7;5;
70915;PMS5003;58557;50.982;-3.222;2023-12-29T03:15:51;5;5;
70915;PMS5003;58557;50.982;-3.222;2023-12-29T03:18:16;7;6;
70915;PMS5003;58557;50.982;-3.222;2023-12-29T03:20:41;5;3;
70915;PMS5003;58557;50.982;-3.222;2023-12-29T03:23:07;4;4;
70915;PMS5003;58557;50.982;-3.222;2023-12-29T03:25:33;3;3;
70915;PMS5003;58557;50.982;-3.222;2023-12-29T03:27:59;4;4;
70915;PMS5003;58557;50.982;-3.222;2023-12-29T03:30:25;5;3;
70915;PMS5003;58557;50.982;-3.222;2023-12-29T03:32:50;6;4;
70915;PMS5003;58557;50.982;-3.222;2023-12-29T03:35:16;4;2;
70915;PMS5003;58557;50.982;-3.222;2023-12-29T03:37:42;6;3;
70915;PMS5003;58557;50.982;-3.222;2023-12-29T03:40:08;6;3;
70915;PMS5003;58557;50.982;-3.222;2023-12-29T03:42:33;6;4;
70915;PMS5003;58557;50.982;-3.222;2023-12-29T03:44:59;4;4;
70915;PMS5003;58557;50.982;-3.222;2023-12-29T03:47:24;5;4;
70915;PMS5003;58557;50.982;-3.222;2023-12-29T03:49:49;5;2;
70915;PMS5003;58557;50.982;-3.222;2023-12-29T03:52:15;2;2;
70915;PMS5003;58557;50.982;-3.222;2023-12-29T03:54:40;4;2;
70915;PMS5003;58557;50.982;-3.222;2023-12-29T03:57:06;4;3;
70915;PMS5003;58557;50.982;-3.222;2023-12-29T03:59:32;6;4;
70915;PMS5003;58557;50.982;-3.222;2023-12-29T04:01:58;4;4;
70915;PMS5003;58557;50.982;-3.222;2023-12-29T04:04:23;3;2;
70915;PMS5003;58557;50.982;-3.222;2023-12-29T04:06:49;2;2;
70915;PMS5003;58557;50.982;-3.222;2023-12-29T04:09:14;5;4;
70915;PMS5003;58557;50.982;-3.222;2023-12-29T04:11:40;3;3;
70915;PMS5003;58557;50.982;-3.222;2023-12-29T04:14:06;1;1;
70915;PMS5003;58557;50.982;-3.222;2023-12-29T04:16:32;1;1;
70915;PMS5003;58557;50.982;-3.222;2023-12-29T04:18:57;3;2;
70915;PMS5003;58557;50.982;-3.222;2023-12-29T04:21:23;2;1;
70915;PMS5003;58557;50.982;-3.222;2023-12-29T04:23:48;3;3;
70915;PMS5003;58557;50.982;-3.222;2023-12-29T04:26:13;8;6;
70915;PMS5003;58557;50.982;-3.222;2023-12-29T04:28:38;4;2;
70915;PMS5003;58557;50.982;-3.222;2023-12-29T04:31:04;2;2;
70915;PMS5003;58557;50.982;-3.222;2023-12-29T04:33:30;1;1;
70915;PMS5003;58557;50.982;-3.222;2023-12-29T04:35:56;3;2;
70915;PMS5003;58557;50.982;-3.222;2023-12-29T04:38:22;5;2;
70915;PMS5003;58557;50.982;-3.222;2023-12-29T04:40:47;2;2;
70915;PMS5003;58557;50.982;-3.222;2023-12-29T04:43:13;5;2;
70915;PMS5003;58557;50.982;-3.222;2023-12-29T04:45:39;6;2;
70915;PMS5003;58557;50.982;-3.222;2023-12-29T04:48:04;3;1;
70915;PMS5003;58557;50.982;-3.222;2023-12-29T04:50:30;6;3;
70915;PMS5003;58557;50.982;-3.222;2023-12-29T04:52:56;3;1;
70915;PMS5003;58557;50.982;-3.222;2023-12-29T04:55:21;9;6;
70915;PMS5003;58557;50.982;-3.222;2023-12-29T04:57:46;4;3;
70915;PMS5003;58557;50.982;-3.222;2023-12-29T05:00:12;3;1;
70915;PMS5003;58557;50.982;-3.222;2023-12-29T05:02:37;2;2;
70915;PMS5003;58557;50.982;-3.222;2023-12-29T05:05:03;5;4;
70915;PMS5003;58557;50.982;-3.222;2023-12-29T05:07:29;4;2;
70915;PMS5003;58557;50.982;-3.222;2023-12-29T05:09:55;6;4;
70915;PMS5003;58557;50.982;-3.222;2023-12-29T05:12:20;5;2;
70915;PMS5003;58557;50.982;-3.222;2023-12-29T05:14:46;2;2;
70915;PMS5003;58557;50.982;-3.222;2023-12-29T05:17:12;1;1;
70915;PMS5003;58557;50.982;-3.222;2023-12-29T05:19:38;4;4;
70915;PMS5003;58557;50.982;-3.222;2023-12-29T05:22:03;2;2;
70915;PMS5003;58557;50.982;-3.222;2023-12-29T05:24:29;3;3;
70915;PMS5003;58557;50.982;-3.222;2023-12-29T05:26:55;9;6;
70915;PMS5003;58557;50.982;-3.222;2023-12-29T05:29:20;4;4;
70915;PMS5003;58557;50.982;-3.222;2023-12-29T05:31:46;3;2;
70915;PMS5003;58557;50.982;-3.222;2023-12-29T05:34:12;6;4;
70915;PMS5003;58557;50.982;-3.222;2023-12-29T05:36:37;1;1;
70915;PMS5003;58557;50.982;-3.222;2023-12-29T05:39:03;4;3;
70915;PMS5003;58557;50.982;-3.222;2023-12-29T05:41:28;4;4;
70915;PMS5003;58557;50.982;-3.222;2023-12-29T05:43:54;3;1;
70915;PMS5003;58557;50.982;-3.222;2023-12-29T05:46:20;1;1;
70915;PMS5003;58557;50.982;-3.222;2023-12-29T05:48:46;3;1;
70915;PMS5003;58557;50.982;-3.222;2023-12-29T05:51:12;3;2;
70915;PMS5003;58557;50.982;-3.222;2023-12-29T05:53:36;2;1;
70915;PMS5003;58557;50.982;-3.222;2023-12-29T05:56:02;2;0;
70915;PMS5003;58557;50.982;-3.222;2023-12-29T05:58:28;1;1;
70915;PMS5003;58557;50.982;-3.222;2023-12-29T06:00:54;3;3;
70915;PMS5003;58557;50.982;-3.222;2023-12-29T06:03:19;4;3;
70915;PMS5003;58557;50.982;-3.222;2023-12-29T06:05:45;5;4;
70915;PMS5003;58557;50.982;-3.222;2023-12-29T06:08:11;4;1;
70915;PMS5003;58557;50.982;-3.222;2023-12-29T06:10:36;4;4;
70915;PMS5003;58557;50.982;-3.222;2023-12-29T06:13:02;5;3;
70915;PMS5003;58557;50.982;-3.222;2023-12-29T06:15:28;2;2;
70915;PMS5003;58557;50.982;-3.222;2023-12-29T06:17:54;1;1;
70915;PMS5003;58557;50.982;-3.222;2023-12-29T06:20:19;3;2;
70915;PMS5003;58557;50.982;-3.222;2023-12-29T06:22:45;4;4;
70915;PMS5003;58557;50.982;-3.222;2023-12-29T06:25:11;3;2;
70915;PMS5003;58557;50.982;-3.222;2023-12-29T06:27:36;4;2;
70915;PMS5003;58557;50.982;-3.222;2023-12-29T06:30:02;3;2;
70915;PMS5003;58557;50.982;-3.222;2023-12-29T06:32:28;5;3;
70915;PMS5003;58557;50.982;-3.222;2023-12-29T06:34:54;5;2;
70915;PMS5003;58557;50.982;-3.222;2023-12-29T06:37:19;3;2;
70915;PMS5003;58557;50.982;-3.222;2023-12-29T06:39:45;6;3;
70915;PMS5003;58557;50.982;-3.222;2023-12-29T06:42:11;5;2;
70915;PMS5003;58557;50.982;-3.222;2023-12-29T06:44:36;2;1;
70915;PMS5003;58557;50.982;-3.222;2023-12-29T06:47:02;8;4;
70915;PMS5003;58557;50.982;-3.222;2023-12-29T06:49:28;1;1;
70915;PMS5003;58557;50.982;-3.222;2023-12-29T06:51:54;3;2;
70915;PMS5003;58557;50.982;-3.222;2023-12-29T06:54:19;2;1;
70915;PMS5003;58557;50.982;-3.222;2023-12-29T06:56:45;2;2;
70915;PMS5003;58557;50.982;-3.222;2023-12-29T06:59:10;4;2;
70915;PMS5003;58557;50.982;-3.222;2023-12-29T07:01:38;4;2;
70915;PMS5003;58557;50.982;-3.222;2023-12-29T07:04:01;2;2;
70915;PMS5003;58557;50.982;-3.222;2023-12-29T07:06:27;2;0;
70915;PMS5003;58557;50.982;-3.222;2023-12-29T07:08:52;3;3;
70915;PMS5003;58557;50.982;-3.222;2023-12-29T07:11:18;6;3;
70915;PMS5003;58557;50.982;-3.222;2023-12-29T07:13:44;1;1;
70915;PMS5003;58557;50.982;-3.222;2023-12-29T07:16:10;1;1;
70915;PMS5003;58557;50.982;-3.222;2023-12-29T07:18:35;3;1;
70915;PMS5003;58557;50.982;-3.222;2023-12-29T07:21:01;2;1;
70915;PMS5003;58557;50.982;-3.222;2023-12-29T07:23:27;1;1;
70915;PMS5003;58557;50.982;-3.222;2023-12-29T07:25:52;10;7;
70915;PMS5003;58557;50.982;-3.222;2023-12-29T07:28:17;4;1;
70915;PMS5003;58557;50.982;-3.222;2023-12-29T07:30:43;1;1;
70915;PMS5003;58557;50.982;-3.222;2023-12-29T07:33:09;3;2;
70915;PMS5003;58557;50.982;-3.222;2023-12-29T07:35:35;0;0;
70915;PMS5003;58557;50.982;-3.222;2023-12-29T07:38:01;3;1;
70915;PMS5003;58557;50.982;-3.222;2023-12-29T07:40:27;0;0;
70915;PMS5003;58557;50.982;-3.222;2023-12-29T07:42:52;3;1;
70915;PMS5003;58557;50.982;-3.222;2023-12-29T07:45:18;1;1;
70915;PMS5003;58557;50.982;-3.222;2023-12-29T07:47:44;1;1;
70915;PMS5003;58557;50.982;-3.222;2023-12-29T07:50:10;4;1;
70915;PMS5003;58557;50.982;-3.222;2023-12-29T07:52:35;3;3;
70915;PMS5003;58557;50.982;-3.222;2023-12-29T07:55:01;5;2;
70915;PMS5003;58557;50.982;-3.222;2023-12-29T07:57:27;1;0;
70915;PMS5003;58557;50.982;-3.222;2023-12-29T07:59:53;1;1;
70915;PMS5003;58557;50.982;-3.222;2023-12-29T08:02:18;3;2;
70915;PMS5003;58557;50.982;-3.222;2023-12-29T08:04:44;2;2;
70915;PMS5003;58557;50.982;-3.222;2023-12-29T08:07:10;5;2;
70915;PMS5003;58557;50.982;-3.222;2023-12-29T08:09:36;1;0;
70915;PMS5003;58557;50.982;-3.222;2023-12-29T08:12:02;2;2;
70915;PMS5003;58557;50.982;-3.222;2023-12-29T08:14:28;1;0;
70915;PMS5003;58557;50.982;-3.222;2023-12-29T08:16:53;2;2;
70915;PMS5003;58557;50.982;-3.222;2023-12-29T08:19:19;4;3;
70915;PMS5003;58557;50.982;-3.222;2023-12-29T08:21:45;1;1;
70915;PMS5003;58557;50.982;-3.222;2023-12-29T08:24:10;2;2;
70915;PMS5003;58557;50.982;-3.222;2023-12-29T08:29:02;1;1;
70915;PMS5003;58557;50.982;-3.222;2023-12-29T08:31:27;1;1;
70915;PMS5003;58557;50.982;-3.222;2023-12-29T08:33:53;1;1;
70915;PMS5003;58557;50.982;-3.222;2023-12-29T08:36:20;0;0;
70915;PMS5003;58557;50.982;-3.222;2023-12-29T08:38:45;0;0;
70915;PMS5003;58557;50.982;-3.222;2023-12-29T08:41:13;1;1;
70915;PMS5003;58557;50.982;-3.222;2023-12-29T08:43:36;0;0;
70915;PMS5003;58557;50.982;-3.222;2023-12-29T08:46:02;0;0;
70915;PMS5003;58557;50.982;-3.222;2023-12-29T08:48:28;2;2;
70915;PMS5003;58557;50.982;-3.222;2023-12-29T08:50:53;0;0;
70915;PMS5003;58557;50.982;-3.222;2023-12-29T08:53:19;0;0;
70915;PMS5003;58557;50.982;-3.222;2023-12-29T08:55:45;0;0;
70915;PMS5003;58557;50.982;-3.222;2023-12-29T08:58:11;3;2;
70915;PMS5003;58557;50.982;-3.222;2023-12-29T09:00:37;2;1;
70915;PMS5003;58557;50.982;-3.222;2023-12-29T09:03:03;3;3;
70915;PMS5003;58557;50.982;-3.222;2023-12-29T09:05:28;1;1;
70915;PMS5003;58557;50.982;-3.222;2023-12-29T09:07:54;1;1;
70915;PMS5003;58557;50.982;-3.222;2023-12-29T09:10:20;1;1;
70915;PMS5003;58557;50.982;-3.222;2023-12-29T09:12:46;2;0;
70915;PMS5003;58557;50.982;-3.222;2023-12-29T09:15:11;0;0;
70915;PMS5003;58557;50.982;-3.222;2023-12-29T09:17:37;4;2;
70915;PMS5003;58557;50.982;-3.222;2023-12-29T09:20:02;5;5;
70915;PMS5003;58557;50.982;-3.222;2023-12-29T09:22:27;1;0;
70915;PMS5003;58557;50.982;-3.222;2023-12-29T09:24:53;5;3;
70915;PMS5003;58557;50.982;-3.222;2023-12-29T09:27:19;2;2;
70915;PMS5003;58557;50.982;-3.222;2023-12-29T09:29:45;1;1;
70915;PMS5003;58557;50.982;-3.222;2023-12-29T09:32:11;1;1;
70915;PMS5003;58557;50.982;-3.222;2023-12-29T09:34:35;2;2;
70915;PMS5003;58557;50.982;-3.222;2023-12-29T09:37:01;2;2;
70915;PMS5003;58557;50.982;-3.222;2023-12-29T09:39:27;2;2;
70915;PMS5003;58557;50.982;-3.222;2023-12-29T09:41:53;4;3;
70915;PMS5003;58557;50.982;-3.222;2023-12-29T09:44:19;1;1;
70915;PMS5003;58557;50.982;-3.222;2023-12-29T09:46:44;3;2;
70915;PMS5003;58557;50.982;-3.222;2023-12-29T09:49:09;4;3;
70915;PMS5003;58557;50.982;-3.222;2023-12-29T09:51:35;2;2;
70915;PMS5003;58557;50.982;-3.222;2023-12-29T09:54:00;5;4;
70915;PMS5003;58557;50.982;-3.222;2023-12-29T09:56:25;1;1;
70915;PMS5003;58557;50.982;-3.222;2023-12-29T09:58:51;1;1;
70915;PMS5003;58557;50.982;-3.222;2023-12-29T10:01:17;3;2;
70915;PMS5003;58557;50.982;-3.222;2023-12-29T10:03:43;3;1;
70915;PMS5003;58557;50.982;-3.222;2023-12-29T10:06:08;1;1;
70915;PMS5003;58557;50.982;-3.222;2023-12-29T10:08:34;3;1;
70915;PMS5003;58557;50.982;-3.222;2023-12-29T10:11:00;2;2;
70915;PMS5003;58557;50.982;-3.222;2023-12-29T10:13:26;2;0;
70915;PMS5003;58557;50.982;-3.222;2023-12-29T10:15:54;4;2;
70915;PMS5003;58557;50.982;-3.222;2023-12-29T10:18:20;3;2;
70915;PMS5003;58557;50.982;-3.222;2023-12-29T10:20:45;2;1;
70915;PMS5003;58557;50.982;-3.222;2023-12-29T10:23:10;5;4;
70915;PMS5003;58557;50.982;-3.222;2023-12-29T10:25:35;3;3;
70915;PMS5003;58557;50.982;-3.222;2023-12-29T10:28:01;5;3;
70915;PMS5003;58557;50.982;-3.222;2023-12-29T10:30:26;1;1;
70915;PMS5003;58557;50.982;-3.222;2023-12-29T10:32:52;5;2;
70915;PMS5003;58557;50.982;-3.222;2023-12-29T10:35:18;5;2;
70915;PMS5003;58557;50.982;-3.222;2023-12-29T10:37:44;5;2;
70915;PMS5003;58557;50.982;-3.222;2023-12-29T10:40:10;4;4;
70915;PMS5003;58557;50.982;-3.222;2023-12-29T10:42:35;1;1;
70915;PMS5003;58557;50.982;-3.222;2023-12-29T10:45:05;2;2;
70915;PMS5003;58557;50.982;-3.222;2023-12-29T10:47:26;5;3;
70915;PMS5003;58557;50.982;-3.222;2023-12-29T10:49:52;1;1;
70915;PMS5003;58557;50.982;-3.222;2023-12-29T10:52:18;4;2;
70915;PMS5003;58557;50.982;-3.222;2023-12-29T10:54:44;1;1;
70915;PMS5003;58557;50.982;-3.222;2023-12-29T10:57:10;2;2;
70915;PMS5003;58557;50.982;-3.222;2023-12-29T10:59:36;7;2;
70915;PMS5003;58557;50.982;-3.222;2023-12-29T11:02:01;3;3;
70915;PMS5003;58557;50.982;-3.222;2023-12-29T11:04:27;4;3;
70915;PMS5003;58557;50.982;-3.222;2023-12-29T11:06:53;5;2;
70915;PMS5003;58557;50.982;-3.222;2023-12-29T11:11:44;2;2;
70915;PMS5003;58557;50.982;-3.222;2023-12-29T11:14:10;1;1;
70915;PMS5003;58557;50.982;-3.222;2023-12-29T11:16:36;5;2;
70915;PMS5003;58557;50.982;-3.222;2023-12-29T11:19:02;5;1;
70915;PMS5003;58557;50.982;-3.222;2023-12-29T11:21:27;0;0;
70915;PMS5003;58557;50.982;-3.222;2023-12-29T11:23:53;3;1;
70915;PMS5003;58557;50.982;-3.222;2023-12-29T11:26:19;1;1;
70915;PMS5003;58557;50.982;-3.222;2023-12-29T11:28:46;4;1;
70915;PMS5003;58557;50.982;-3.222;2023-12-29T11:31:10;2;0;
70915;PMS5003;58557;50.982;-3.222;2023-12-29T11:33:38;2;0;
70915;PMS5003;58557;50.982;-3.222;2023-12-29T11:36:02;2;1;
70915;PMS5003;58557;50.982;-3.222;2023-12-29T11:38:35;1;1;
70915;PMS5003;58557;50.982;-3.222;2023-12-29T11:40:56;3;2;
70915;PMS5003;58557;50.982;-3.222;2023-12-29T11:43:19;1;1;
70915;PMS5003;58557;50.982;-3.222;2023-12-29T11:45:45;2;1;
70915;PMS5003;58557;50.982;-3.222;2023-12-29T11:48:10;2;0;
70915;PMS5003;58557;50.982;-3.222;2023-12-29T11:50:37;2;0;
70915;PMS5003;58557;50.982;-3.222;2023-12-29T11:53:02;1;0;
70915;PMS5003;58557;50.982;-3.222;2023-12-29T11:55:29;3;1;
70915;PMS5003;58557;50.982;-3.222;2023-12-29T11:57:53;1;1;
70915;PMS5003;58557;50.982;-3.222;2023-12-29T12:00:19;1;1;
70915;PMS5003;58557;50.982;-3.222;2023-12-29T12:02:45;0;0;
70915;PMS5003;58557;50.982;-3.222;2023-12-29T12:05:10;0;0;
70915;PMS5003;58557;50.982;-3.222;2023-12-29T12:12:38;1;0;
70915;PMS5003;58557;50.982;-3.222;2023-12-29T12:14:53;0;0;
70915;PMS5003;58557;50.982;-3.222;2023-12-29T12:17:27;1;1;
70915;PMS5003;58557;50.982;-3.222;2023-12-29T12:19:44;2;0;
70915;PMS5003;58557;50.982;-3.222;2023-12-29T12:22:10;3;2;
70915;PMS5003;58557;50.982;-3.222;2023-12-29T12:24:35;2;0;
70915;PMS5003;58557;50.982;-3.222;2023-12-29T12:27:01;6;5;
70915;PMS5003;58557;50.982;-3.222;2023-12-29T12:29:26;4;3;
70915;PMS5003;58557;50.982;-3.222;2023-12-29T12:31:52;0;0;
70915;PMS5003;58557;50.982;-3.222;2023-12-29T12:34:18;1;1;
70915;PMS5003;58557;50.982;-3.222;2023-12-29T12:36:47;1;0;
70915;PMS5003;58557;50.982;-3.222;2023-12-29T12:39:09;3;1;
70915;PMS5003;58557;50.982;-3.222;2023-12-29T12:41:35;3;1;
70915;PMS5003;58557;50.982;-3.222;2023-12-29T12:44:03;2;2;
70915;PMS5003;58557;50.982;-3.222;2023-12-29T12:46:26;2;1;
70915;PMS5003;58557;50.982;-3.222;2023-12-29T12:48:51;9;4;
70915;PMS5003;58557;50.982;-3.222;2023-12-29T12:51:18;1;0;
70915;PMS5003;58557;50.982;-3.222;2023-12-29T12:53:43;3;1;
70915;PMS5003;58557;50.982;-3.222;2023-12-29T12:56:09;3;0;
70915;PMS5003;58557;50.982;-3.222;2023-12-29T12:58:34;3;1;
70915;PMS5003;58557;50.982;-3.222;2023-12-29T13:01:00;3;0;
70915;PMS5003;58557;50.982;-3.222;2023-12-29T13:03:25;2;2;
70915;PMS5003;58557;50.982;-3.222;2023-12-29T13:05:51;1;1;
70915;PMS5003;58557;50.982;-3.222;2023-12-29T13:08:17;2;2;
70915;PMS5003;58557;50.982;-3.222;2023-12-29T13:10:43;3;1;
70915;PMS5003;58557;50.982;-3.222;2023-12-29T13:13:08;2;2;
70915;PMS5003;58557;50.982;-3.222;2023-12-29T13:15:34;3;2;
70915;PMS5003;58557;50.982;-3.222;2023-12-29T13:18:00;5;1;
70915;PMS5003;58557;50.982;-3.222;2023-12-29T13:20:26;4;3;
70915;PMS5003;58557;50.982;-3.222;2023-12-29T13:22:51;3;3;
70915;PMS5003;58557;50.982;-3.222;2023-12-29T13:25:18;1;1;
70915;PMS5003;58557;50.982;-3.222;2023-12-29T13:27:43;2;2;
70915;PMS5003;58557;50.982;-3.222;2023-12-29T13:30:09;7;2;
70915;PMS5003;58557;50.982;-3.222;2023-12-29T13:32:35;2;2;
70915;PMS5003;58557;50.982;-3.222;2023-12-29T13:35:02;1;1;
70915;PMS5003;58557;50.982;-3.222;2023-12-29T13:37:30;5;3;
70915;PMS5003;58557;50.982;-3.222;2023-12-29T13:39:53;3;1;
70915;PMS5003;58557;50.982;-3.222;2023-12-29T13:42:17;3;1;
70915;PMS5003;58557;50.982;-3.222;2023-12-29T13:44:43;2;0;
70915;PMS5003;58557;50.982;-3.222;2023-12-29T13:47:09;2;1;
70915;PMS5003;58557;50.982;-3.222;2023-12-29T13:49:34;1;1;
70915;PMS5003;58557;50.982;-3.222;2023-12-29T13:52:00;1;1;
70915;PMS5003;58557;50.982;-3.222;2023-12-29T13:54:26;3;0;
70915;PMS5003;58557;50.982;-3.222;2023-12-29T13:56:52;1;1;
70915;PMS5003;58557;50.982;-3.222;2023-12-29T13:59:18;2;0;
70915;PMS5003;58557;50.982;-3.222;2023-12-29T14:01:43;1;1;
70915;PMS5003;58557;50.982;-3.222;2023-12-29T14:04:10;1;1;
70915;PMS5003;58557;50.982;-3.222;2023-12-29T14:06:37;1;1;
70915;PMS5003;58557;50.982;-3.222;2023-12-29T14:09:00;4;3;
70915;PMS5003;58557;50.982;-3.222;2023-12-29T14:11:26;0;0;
70915;PMS5003;58557;50.982;-3.222;2023-12-29T14:13:52;4;2;
70915;PMS5003;58557;50.982;-3.222;2023-12-29T14:16:17;2;2;
70915;PMS5003;58557;50.982;-3.222;2023-12-29T14:18:52;1;1;
70915;PMS5003;58557;50.982;-3.222;2023-12-29T14:23:35;1;1;
70915;PMS5003;58557;50.982;-3.222;2023-12-29T14:26:02;2;2;
70915;PMS5003;58557;50.982;-3.222;2023-12-29T14:28:26;2;2;
70915;PMS5003;58557;50.982;-3.222;2023-12-29T14:30:59;2;2;
70915;PMS5003;58557;50.982;-3.222;2023-12-29T14:33:18;2;1;
70915;PMS5003;58557;50.982;-3.222;2023-12-29T14:35:44;1;1;
70915;PMS5003;58557;50.982;-3.222;2023-12-29T14:38:09;1;1;
70915;PMS5003;58557;50.982;-3.222;2023-12-29T14:40:35;3;1;
70915;PMS5003;58557;50.982;-3.222;2023-12-29T14:43:01;4;1;
70915;PMS5003;58557;50.982;-3.222;2023-12-29T14:45:26;2;2;
70915;PMS5003;58557;50.982;-3.222;2023-12-29T14:47:52;3;3;
70915;PMS5003;58557;50.982;-3.222;2023-12-29T14:50:17;4;2;
70915;PMS5003;58557;50.982;-3.222;2023-12-29T14:52:43;1;1;
70915;PMS5003;58557;50.982;-3.222;2023-12-29T14:55:09;9;9;
70915;PMS5003;58557;50.982;-3.222;2023-12-29T14:57:35;2;2;
70915;PMS5003;58557;50.982;-3.222;2023-12-29T15:00:00;1;1;
70915;PMS5003;58557;50.982;-3.222;2023-12-29T15:02:26;3;2;
70915;PMS5003;58557;50.982;-3.222;2023-12-29T15:04:51;13;11;
70915;PMS5003;58557;50.982;-3.222;2023-12-29T15:07:17;9;5;
70915;PMS5003;58557;50.982;-3.222;2023-12-29T15:09:42;2;1;
70915;PMS5003;58557;50.982;-3.222;2023-12-29T15:12:08;3;2;
70915;PMS5003;58557;50.982;-3.222;2023-12-29T15:14:34;1;1;
70915;PMS5003;58557;50.982;-3.222;2023-12-29T15:16:59;2;2;
70915;PMS5003;58557;50.982;-3.222;2023-12-29T15:19:25;0;0;
70915;PMS5003;58557;50.982;-3.222;2023-12-29T15:21:51;1;1;
70915;PMS5003;58557;50.982;-3.222;2023-12-29T15:24:16;4;3;
70915;PMS5003;58557;50.982;-3.222;2023-12-29T15:26:42;2;2;
70915;PMS5003;58557;50.982;-3.222;2023-12-29T15:29:08;1;1;
70915;PMS5003;58557;50.982;-3.222;2023-12-29T15:31:34;8;2;
70915;PMS5003;58557;50.982;-3.222;2023-12-29T15:33:59;3;1;
70915;PMS5003;58557;50.982;-3.222;2023-12-29T15:36:25;2;2;
70915;PMS5003;58557;50.982;-3.222;2023-12-29T15:38:51;2;1;
70915;PMS5003;58557;50.982;-3.222;2023-12-29T15:41:17;4;2;
70915;PMS5003;58557;50.982;-3.222;2023-12-29T15:43:42;4;4;
70915;PMS5003;58557;50.982;-3.222;2023-12-29T15:46:12;8;4;
70915;PMS5003;58557;50.982;-3.222;2023-12-29T15:48:34;3;3;
70915;PMS5003;58557;50.982;-3.222;2023-12-29T15:51:00;6;3;
70915;PMS5003;58557;50.982;-3.222;2023-12-29T15:53:26;5;3;
70915;PMS5003;58557;50.982;-3.222;2023-12-29T15:55:52;4;4;
70915;PMS5003;58557;50.982;-3.222;2023-12-29T15:58:17;6;6;
70915;PMS5003;58557;50.982;-3.222;2023-12-29T16:00:43;6;3;
70915;PMS5003;58557;50.982;-3.222;2023-12-29T16:03:09;9;6;
70915;PMS5003;58557;50.982;-3.222;2023-12-29T16:05:34;9;6;
70915;PMS5003;58557;50.982;-3.222;2023-12-29T16:08:00;6;4;
70915;PMS5003;58557;50.982;-3.222;2023-12-29T16:10:25;6;2;
70915;PMS5003;58557;50.982;-3.222;2023-12-29T16:12:51;3;3;
70915;PMS5003;58557;50.982;-3.222;2023-12-29T16:15:17;4;4;
70915;PMS5003;58557;50.982;-3.222;2023-12-29T16:17:42;4;2;
70915;PMS5003;58557;50.982;-3.222;2023-12-29T16:20:08;3;2;
70915;PMS5003;58557;50.982;-3.222;2023-12-29T16:22:33;5;2;
70915;PMS5003;58557;50.982;-3.222;2023-12-29T16:24:59;5;3;
70915;PMS5003;58557;50.982;-3.222;2023-12-29T16:27:24;3;3;
70915;PMS5003;58557;50.982;-3.222;2023-12-29T16:29:50;8;4;
70915;PMS5003;58557;50.982;-3.222;2023-12-29T16:32:21;5;3;
70915;PMS5003;58557;50.982;-3.222;2023-12-29T16:34:41;4;3;
70915;PMS5003;58557;50.982;-3.222;2023-12-29T16:37:07;5;5;